Time;durP1;ratioP1;P1;durP2;ratioP2;P2;SDS_P1;SDS_P2;PMS_P1;PMS_P2;Temp;Humidity;BMP_temperature;BMP_pressure;BME280_temperature;BME280_humidity;BME280_pressure;Samples;Min_cycle;Max_cycle;Signal;HPM_P1;HPM_P2
2022/05/08 00:00:26;;;;;;;5.60;3.65;;;15.50;99.90;;;;;;5008456;28;20205;-84
2022/05/08 00:02:55;;;;;;;4.50;4.10;;;15.50;99.90;;;;;;5003206;28;20212;-84
2022/05/08 00:05:24;;;;;;;6.30;4.43;;;15.30;99.90;;;;;;5015191;28;20192;-84
2022/05/08 00:07:51;;;;;;;5.30;4.20;;;15.30;99.90;;;;;;5016413;28;20223;-84
2022/05/08 00:10:19;;;;;;;4.93;4.43;;;15.20;99.90;;;;;;5002504;28;20208;-83
2022/05/08 00:12:47;;;;;;;7.18;4.70;;;15.30;99.90;;;;;;4995335;28;20188;-84
2022/05/08 00:15:15;;;;;;;5.55;4.55;;;15.40;99.90;;;;;;5018706;28;20587;-84
2022/05/08 00:17:44;;;;;;;5.47;4.53;;;15.40;99.90;;;;;;5023757;28;20224;-84
2022/05/08 00:20:12;;;;;;;7.13;4.80;;;15.40;99.90;;;;;;5002348;28;20201;-84
2022/05/08 00:22:45;;;;;;;6.22;5.05;;;15.30;99.90;;;;;;4999653;28;20231;-84
2022/05/08 00:25:13;;;;;;;7.75;4.75;;;15.20;99.90;;;;;;5003455;28;20211;-84
2022/05/08 00:27:40;;;;;;;7.45;4.82;;;15.30;99.90;;;;;;5000224;28;20276;-84
2022/05/08 00:30:09;;;;;;;7.70;5.50;;;15.10;99.90;;;;;;4995512;28;20201;-83
2022/05/08 00:32:36;;;;;;;6.97;5.68;;;15.00;99.90;;;;;;5005383;28;20199;-84
2022/05/08 00:35:04;;;;;;;7.63;5.97;;;15.00;99.90;;;;;;5000312;28;20212;-84
2022/05/08 00:37:32;;;;;;;7.53;6.03;;;15.00;99.90;;;;;;4996883;28;20216;-84
2022/05/08 00:40:00;;;;;;;9.13;6.10;;;15.00;99.90;;;;;;5017889;28;20215;-83
2022/05/08 00:42:30;;;;;;;7.88;6.20;;;14.90;99.90;;;;;;5016569;28;20224;-84
2022/05/08 00:44:57;;;;;;;7.75;5.75;;;14.90;99.90;;;;;;5009214;28;20219;-84
2022/05/08 00:47:25;;;;;;;7.75;6.40;;;14.80;99.90;;;;;;5002188;28;20232;-84
2022/05/08 00:49:53;;;;;;;8.73;6.43;;;14.90;99.90;;;;;;5002267;28;20193;-84
2022/05/08 00:52:21;;;;;;;8.80;6.20;;;14.90;99.90;;;;;;5000297;28;20889;-83
2022/05/08 00:54:49;;;;;;;10.18;6.72;;;14.70;99.90;;;;;;5002835;28;20215;-84
2022/05/08 00:57:18;;;;;;;11.30;6.25;;;14.70;99.90;;;;;;5003795;28;20220;-83
2022/05/08 00:59:46;;;;;;;9.85;6.75;;;14.70;99.90;;;;;;5018151;28;20196;-83
2022/05/08 01:02:13;;;;;;;10.35;6.50;;;14.70;99.90;;;;;;5000759;28;20201;-84
2022/05/08 01:04:41;;;;;;;9.20;6.28;;;14.70;99.90;;;;;;5000286;28;20434;-84
2022/05/08 01:07:08;;;;;;;7.35;6.35;;;14.60;99.90;;;;;;5017887;28;20235;-84
2022/05/08 01:09:36;;;;;;;7.57;6.15;;;14.70;99.90;;;;;;5000886;28;22942;-84
2022/05/08 01:12:09;;;;;;;7.40;5.75;;;14.70;99.90;;;;;;5003146;28;20269;-84
2022/05/08 01:14:38;;;;;;;6.70;6.00;;;14.90;99.90;;;;;;5003569;28;20215;-84
2022/05/08 01:17:06;;;;;;;8.52;5.97;;;14.80;99.90;;;;;;4999678;28;20220;-83
2022/05/08 01:19:33;;;;;;;7.35;5.93;;;14.90;99.90;;;;;;5000384;28;20209;-84
2022/05/08 01:22:02;;;;;;;8.40;7.50;;;14.80;99.90;;;;;;4999534;28;20201;-84
2022/05/08 01:24:29;;;;;;;10.52;6.78;;;14.70;99.90;;;;;;5015944;28;20239;-84
2022/05/08 01:26:57;;;;;;;10.00;6.95;;;14.50;99.90;;;;;;4998585;28;20224;-84
2022/05/08 01:29:24;;;;;;;9.50;7.43;;;14.40;99.90;;;;;;4986732;28;20208;-83
2022/05/08 01:31:52;;;;;;;10.70;7.10;;;14.50;99.90;;;;;;4974732;28;20575;-83
2022/05/08 01:34:19;;;;;;;9.30;7.32;;;14.50;99.90;;;;;;4999529;28;20200;-83
2022/05/08 01:36:46;;;;;;;11.90;8.30;;;14.50;99.90;;;;;;4983803;28;20725;-83
2022/05/08 01:39:15;;;;;;;9.55;7.85;;;14.40;99.90;;;;;;5006918;28;20201;-83
2022/05/08 01:41:43;;;;;;;12.30;7.72;;;14.30;99.90;;;;;;4987123;28;20199;-83
2022/05/08 01:44:10;;;;;;;10.05;7.80;;;14.30;99.90;;;;;;5004374;28;20686;-83
2022/05/08 01:46:37;;;;;;;10.45;8.50;;;14.30;99.90;;;;;;5000478;28;20239;-84
2022/05/08 01:49:04;;;;;;;9.73;8.57;;;14.20;99.90;;;;;;5000887;28;20211;-84
2022/05/08 01:51:31;;;;;;;10.30;8.75;;;14.20;99.90;;;;;;4987612;28;20208;-81
2022/05/08 01:54:00;;;;;;;9.63;8.63;;;14.00;99.90;;;;;;4993614;28;20196;-83
2022/05/08 01:56:29;;;;;;;9.48;8.52;;;14.00;99.90;;;;;;4988605;28;20220;-84
2022/05/08 01:58:56;;;;;;;13.00;9.57;;;14.10;99.90;;;;;;5004506;28;20212;-84
2022/05/08 02:01:24;;;;;;;11.35;9.80;;;14.20;99.90;;;;;;4998150;28;20205;-84
2022/05/08 02:03:51;;;;;;;13.40;9.88;;;14.00;99.90;;;;;;4986827;28;20213;-84
2022/05/08 02:06:19;;;;;;;11.70;9.88;;;14.00;99.90;;;;;;4987177;28;20589;-84
2022/05/08 02:08:47;;;;;;;13.32;10.88;;;14.00;99.90;;;;;;4996197;28;20199;-83
2022/05/08 02:11:15;;;;;;;14.65;10.82;;;13.70;99.90;;;;;;5001208;28;20208;-84
2022/05/08 02:13:43;;;;;;;11.82;10.10;;;13.80;99.90;;;;;;5000649;28;20677;-84
2022/05/08 02:16:12;;;;;;;13.00;9.70;;;13.70;99.90;;;;;;5002927;28;20216;-84
2022/05/08 02:18:39;;;;;;;11.68;10.35;;;13.60;99.90;;;;;;4974063;28;20255;-84
2022/05/08 02:21:07;;;;;;;13.45;11.13;;;13.60;99.90;;;;;;4980361;28;20211;-84
2022/05/08 02:23:34;;;;;;;12.95;10.07;;;13.60;99.90;;;;;;4979287;28;20682;-83
2022/05/08 02:26:03;;;;;;;13.13;10.88;;;13.60;99.90;;;;;;4993589;28;20228;-84
2022/05/08 02:28:31;;;;;;;12.43;10.32;;;13.70;99.90;;;;;;4995039;28;20212;-84
2022/05/08 02:31:00;;;;;;;13.20;10.35;;;13.70;99.90;;;;;;4994263;28;20207;-83
2022/05/08 02:33:27;;;;;;;12.95;11.35;;;13.70;99.90;;;;;;5000641;28;20197;-84
2022/05/08 02:35:55;;;;;;;13.18;11.07;;;13.80;99.90;;;;;;5001821;28;20199;-84
2022/05/08 02:38:22;;;;;;;13.95;10.82;;;13.70;99.90;;;;;;4998696;28;20413;-84
2022/05/08 02:40:49;;;;;;;13.75;11.40;;;13.60;99.90;;;;;;5000438;28;20207;-84
2022/05/08 02:43:20;;;;;;;13.32;11.02;;;13.60;99.90;;;;;;5005148;28;20228;-84
2022/05/08 02:45:48;;;;;;;13.10;10.57;;;13.70;99.90;;;;;;5008838;28;20200;-83
2022/05/08 02:48:17;;;;;;;12.60;10.57;;;13.60;99.90;;;;;;5017727;28;20196;-83
2022/05/08 02:50:44;;;;;;;14.65;11.65;;;13.40;99.90;;;;;;5004642;28;20187;-83
2022/05/08 02:53:12;;;;;;;13.93;11.55;;;13.50;99.90;;;;;;5000674;28;20208;-84
2022/05/08 02:58:33;;;;;;;14.32;10.77;;;13.10;99.90;;;;;;5005757;28;20188;-83
2022/05/08 03:01:05;;;;;;;14.68;11.45;;;12.90;99.90;;;;;;4999110;28;20203;-83
2022/05/08 03:03:34;;;;;;;14.90;11.98;;;13.20;99.90;;;;;;4998292;28;20216;-83
2022/05/08 03:06:01;;;;;;;16.50;12.38;;;13.00;99.90;;;;;;5000800;28;20212;-84
2022/05/08 03:08:29;;;;;;;16.27;12.43;;;12.90;99.90;;;;;;5017213;28;20204;-84
2022/05/08 03:13:42;;;;;;;18.58;12.75;;;13.10;99.90;;;;;;5012483;28;20199;-84
2022/05/08 03:16:11;;;;;;;15.63;11.85;;;13.20;99.90;;;;;;4993980;28;20231;-84
2022/05/08 03:18:40;;;;;;;18.05;12.95;;;12.90;99.90;;;;;;4994000;28;20216;-83
2022/05/08 03:21:08;;;;;;;16.35;12.18;;;12.90;99.90;;;;;;5012186;28;20212;-83
2022/05/08 03:23:39;;;;;;;16.45;13.43;;;12.80;99.90;;;;;;5000759;28;20216;-84
2022/05/08 03:26:07;;;;;;;18.98;13.23;;;13.00;99.90;;;;;;4998982;28;20220;-83
2022/05/08 03:28:35;;;;;;;22.08;13.10;;;13.00;99.90;;;;;;4997269;28;20204;-84
2022/05/08 03:31:03;;;;;;;18.52;14.18;;;13.00;99.90;;;;;;4984111;28;20212;-83
2022/05/08 03:33:31;;;;;;;15.40;13.32;;;13.00;99.90;;;;;;4997496;28;20204;-84
2022/05/08 03:36:01;;;;;;;20.98;13.52;;;12.90;99.90;;;;;;4980910;28;20201;-83
2022/05/08 03:38:28;;;;;;;18.23;13.98;;;12.80;99.90;;;;;;5001128;28;20646;-83
2022/05/08 03:40:56;;;;;;;17.27;13.73;;;13.00;99.90;;;;;;4977442;28;20223;-83
2022/05/08 03:43:24;;;;;;;18.30;12.88;;;12.70;99.90;;;;;;4973265;28;20209;-83
2022/05/08 03:45:52;;;;;;;20.02;13.15;;;12.90;99.90;;;;;;4998341;28;20204;-83
2022/05/08 03:48:22;;;;;;;18.58;13.23;;;12.80;99.90;;;;;;5006765;28;20558;-83
2022/05/08 03:50:49;;;;;;;19.50;14.88;;;13.00;99.90;;;;;;4990461;28;20204;-83
2022/05/08 03:53:18;;;;;;;14.85;11.48;;;12.50;99.90;;;;;;4985975;28;20200;-83
2022/05/08 03:55:46;;;;;;;14.13;10.80;;;12.40;99.90;;;;;;4982842;28;20200;-83
2022/05/08 03:58:13;;;;;;;14.55;8.43;;;12.10;99.90;;;;;;4980545;28;20205;-83
2022/05/08 04:00:41;;;;;;;10.18;7.25;;;12.10;99.90;;;;;;4981681;28;20200;-83
2022/05/08 04:03:08;;;;;;;15.63;7.00;;;12.40;99.90;;;;;;4997074;28;20207;-83
2022/05/08 04:05:36;;;;;;;12.50;5.95;;;12.30;99.90;;;;;;4980904;28;20212;-83
2022/05/08 04:08:05;;;;;;;15.90;6.10;;;12.30;99.90;;;;;;4996972;28;20220;-83
2022/05/08 04:10:34;;;;;;;11.70;5.95;;;12.60;99.90;;;;;;4996466;28;20215;-83
2022/05/08 04:13:01;;;;;;;15.60;5.57;;;12.60;99.90;;;;;;4998852;28;20192;-83
2022/05/08 04:18:14;;;;;;;11.02;5.55;;;12.50;99.90;;;;;;4967240;28;20197;-83
2022/05/08 04:20:41;;;;;;;11.30;5.07;;;12.40;99.90;;;;;;4984854;28;20196;-84
2022/05/08 04:25:57;;;;;;;12.40;5.27;;;12.40;99.90;;;;;;5001323;28;20213;-83
2022/05/08 04:28:24;;;;;;;14.67;4.80;;;12.50;99.90;;;;;;4994483;28;20207;-84
2022/05/08 04:30:51;;;;;;;11.53;5.37;;;12.40;99.90;;;;;;5020055;28;20208;-84
2022/05/08 04:33:19;;;;;;;18.30;5.13;;;11.90;99.90;;;;;;5009624;28;20646;-83
2022/05/08 04:35:46;;;;;;;14.53;5.47;;;12.00;99.90;;;;;;5001918;28;20204;-84
2022/05/08 04:38:14;;;;;;;14.10;5.37;;;12.10;99.90;;;;;;5010976;28;20196;-83
2022/05/08 04:40:42;;;;;;;15.57;5.65;;;12.00;99.90;;;;;;5015835;28;20200;-82
2022/05/08 04:43:11;;;;;;;11.10;5.27;;;11.90;99.90;;;;;;4990228;28;20204;-84
2022/05/08 04:45:38;;;;;;;14.87;5.53;;;12.00;99.90;;;;;;5008069;28;20235;-84
2022/05/08 04:48:06;;;;;;;18.98;6.13;;;12.20;99.90;;;;;;4995888;28;20232;-84
2022/05/08 04:50:34;;;;;;;14.18;4.57;;;12.20;99.90;;;;;;4994239;28;20259;-84
2022/05/08 04:53:01;;;;;;;13.03;5.30;;;12.20;99.90;;;;;;5012002;28;20201;-83
2022/05/08 04:55:29;;;;;;;14.97;6.03;;;12.10;99.90;;;;;;5014545;28;20196;-81
2022/05/08 04:57:57;;;;;;;14.07;5.17;;;12.00;99.90;;;;;;4999334;28;20208;-82
2022/05/08 05:00:26;;;;;;;14.33;4.80;;;12.60;99.90;;;;;;4993882;28;20599;-82
2022/05/08 05:02:54;;;;;;;13.38;4.95;;;12.50;99.90;;;;;;4994515;28;20200;-82
2022/05/08 05:05:42;;;;;;;14.37;5.30;;;12.20;99.90;;;;;;4992446;28;20223;-82
2022/05/08 05:08:13;;;;;;;17.08;5.20;;;12.10;99.90;;;;;;4987663;28;20989;-82
2022/05/08 05:10:40;;;;;;;14.83;5.93;;;12.30;99.90;;;;;;5015301;28;20203;-82
2022/05/08 05:13:08;;;;;;;15.50;5.20;;;12.30;99.90;;;;;;4995114;28;20196;-82
2022/05/08 05:15:37;;;;;;;12.55;5.10;;;12.20;99.90;;;;;;4998689;28;20205;-80
2022/05/08 05:18:05;;;;;;;15.30;5.73;;;12.10;99.90;;;;;;4995130;28;20267;-81
2022/05/08 05:20:33;;;;;;;15.03;5.57;;;12.10;99.90;;;;;;5002796;28;20570;-80
2022/05/08 05:23:01;;;;;;;14.33;6.03;;;12.00;99.90;;;;;;4992478;28;20211;-82
2022/05/08 05:25:29;;;;;;;14.63;5.43;;;12.00;99.90;;;;;;5015791;28;20591;-80
2022/05/08 05:27:56;;;;;;;14.00;6.03;;;12.00;99.90;;;;;;4997722;28;20228;-80
2022/05/08 05:30:24;;;;;;;15.50;6.03;;;11.90;99.90;;;;;;4997448;28;20192;-83
2022/05/08 05:32:53;;;;;;;14.97;5.87;;;12.00;99.90;;;;;;5000065;28;20200;-81
2022/05/08 05:35:20;;;;;;;17.77;6.23;;;11.90;99.90;;;;;;4974305;28;20205;-81
2022/05/08 05:37:48;;;;;;;21.00;7.33;;;11.40;99.90;;;;;;4987266;28;20227;-81
2022/05/08 05:40:15;;;;;;;13.50;6.57;;;11.40;99.90;;;;;;4995561;28;20650;-81
2022/05/08 05:42:43;;;;;;;14.67;6.87;;;11.80;99.90;;;;;;4985472;28;20200;-80
2022/05/08 05:45:11;;;;;;;16.77;7.33;;;11.50;99.90;;;;;;4982141;28;20208;-81
2022/05/08 05:47:49;;;;;;;16.60;5.93;;;11.50;99.90;;;;;;4982029;28;20228;-82
2022/05/08 05:50:20;;;;;;;17.17;7.03;;;11.60;99.90;;;;;;4999902;28;20191;-81
2022/05/08 05:52:48;;;;;;;19.83;8.20;;;11.50;99.90;;;;;;4980810;28;20211;-82
2022/05/08 05:55:16;;;;;;;17.50;7.17;;;11.70;99.90;;;;;;4995410;28;20192;-82
2022/05/08 05:57:44;;;;;;;17.00;6.20;;;11.80;99.90;;;;;;4990367;28;20706;-81
2022/05/08 06:00:13;;;;;;;16.90;6.67;;;12.20;99.90;;;;;;4979230;28;20200;-80
2022/05/08 06:02:43;;;;;;;19.60;7.23;;;12.20;99.90;;;;;;5000290;28;20212;-81
2022/05/08 06:05:12;;;;;;;25.13;9.10;;;12.30;99.90;;;;;;4973083;28;20243;-82
2022/05/08 06:07:42;;;;;;;19.50;9.30;;;12.30;99.90;;;;;;4970258;28;20228;-82
2022/05/08 06:10:12;;;;;;;18.57;8.57;;;12.10;99.90;;;;;;4987231;28;20200;-84
2022/05/08 06:12:41;;;;;;;17.80;7.90;;;11.90;99.90;;;;;;4971439;28;20226;-84
2022/05/08 06:15:10;;;;;;;20.00;7.23;;;12.10;99.90;;;;;;4974150;28;20197;-83
2022/05/08 06:17:43;;;;;;;16.50;7.40;;;12.40;99.90;;;;;;4993131;28;20224;-84
2022/05/08 06:20:11;;;;;;;19.50;7.37;;;12.50;99.90;;;;;;4983665;28;20219;-83
2022/05/08 06:22:46;;;;;;;16.13;7.20;;;12.30;99.90;;;;;;4976540;28;20208;-81
2022/05/08 06:25:13;;;;;;;16.33;6.00;;;12.50;99.90;;;;;;5004259;28;20204;-84
2022/05/08 06:27:40;;;;;;;16.50;6.27;;;12.60;99.90;;;;;;4982094;28;20243;-83
2022/05/08 06:30:09;;;;;;;15.33;6.20;;;12.40;99.90;;;;;;4993107;28;21006;-82
2022/05/08 06:32:37;;;;;;;16.97;7.23;;;12.90;99.90;;;;;;5007877;28;20211;-82
2022/05/08 06:35:05;;;;;;;16.52;6.80;;;12.60;99.90;;;;;;4993519;28;20207;-81
2022/05/08 06:37:33;;;;;;;16.58;7.63;;;13.30;99.90;;;;;;5007228;28;20690;-81
2022/05/08 06:40:02;;;;;;;16.20;7.57;;;13.40;99.90;;;;;;5003826;28;20208;-81
2022/05/08 06:42:32;;;;;;;13.82;6.50;;;13.20;99.90;;;;;;4991311;28;20188;-81
2022/05/08 06:45:04;;;;;;;17.13;6.88;;;13.30;99.90;;;;;;5009095;28;20196;-81
2022/05/08 06:47:31;;;;;;;14.55;6.00;;;12.60;99.90;;;;;;5009061;28;20511;-81
2022/05/08 06:49:58;;;;;;;11.60;5.80;;;12.90;99.90;;;;;;4996523;28;20208;-81
2022/05/08 06:52:26;;;;;;;17.10;7.00;;;12.70;99.90;;;;;;4993103;28;20204;-81
2022/05/08 06:54:53;;;;;;;13.00;6.18;;;12.50;99.90;;;;;;4992718;28;20589;-82
2022/05/08 06:57:22;;;;;;;16.90;6.63;;;14.00;99.90;;;;;;4988049;28;20231;-81
2022/05/08 07:02:41;;;;;;;15.98;6.28;;;12.80;99.90;;;;;;4988506;28;20200;-80
2022/05/08 07:05:11;;;;;;;26.27;8.45;;;14.10;99.90;;;;;;4986353;28;20204;-77
2022/05/08 07:07:38;;;;;;;21.58;7.50;;;14.70;99.90;;;;;;4993164;28;20220;-80
2022/05/08 07:10:06;;;;;;;23.40;8.57;;;14.40;99.90;;;;;;4989456;28;20690;-81
2022/05/08 07:12:37;;;;;;;14.02;6.32;;;13.80;99.90;;;;;;4993625;28;20196;-80
2022/05/08 07:15:05;;;;;;;17.15;6.10;;;12.90;99.90;;;;;;4986813;28;20196;-80
2022/05/08 07:17:32;;;;;;;15.55;6.85;;;13.40;99.90;;;;;;4984617;28;20247;-80
2022/05/08 07:20:01;;;;;;;17.35;6.13;;;14.40;99.90;;;;;;4998215;28;20207;-80
2022/05/08 07:22:30;;;;;;;12.57;5.25;;;14.70;99.90;;;;;;4990264;28;20208;-78
2022/05/08 07:24:57;;;;;;;18.27;6.22;;;15.10;99.90;;;;;;4986339;28;20204;-79
2022/05/08 07:27:25;;;;;;;15.90;5.80;;;15.10;99.90;;;;;;4981573;28;20220;-79
2022/05/08 07:29:53;;;;;;;13.05;4.78;;;14.90;99.90;;;;;;4986370;28;20212;-77
2022/05/08 07:32:21;;;;;;;12.48;5.32;;;14.90;99.90;;;;;;4986144;28;20682;-78
2022/05/08 07:37:35;;;;;;;14.18;5.00;;;13.80;99.90;;;;;;4991978;28;20690;-77
2022/05/08 07:40:03;;;;;;;15.52;5.38;;;13.60;99.90;;;;;;4983887;28;20219;-76
2022/05/08 07:42:30;;;;;;;14.40;5.78;;;13.50;99.90;;;;;;4982487;28;20564;-76
2022/05/08 07:44:59;;;;;;;13.48;5.55;;;13.30;99.90;;;;;;4979245;28;20721;-75
2022/05/08 07:47:26;;;;;;;13.18;5.65;;;13.40;99.90;;;;;;4979355;28;20599;-76
2022/05/08 07:49:53;;;;;;;12.90;5.32;;;13.30;99.90;;;;;;4982466;28;20207;-78
2022/05/08 07:52:21;;;;;;;13.80;5.68;;;13.50;99.90;;;;;;4980474;28;20211;-76
2022/05/08 07:54:48;;;;;;;12.35;4.85;;;14.40;99.90;;;;;;4976670;28;20582;-75
2022/05/08 07:57:16;;;;;;;14.52;5.90;;;14.20;99.90;;;;;;4996761;28;20223;-76
2022/05/08 07:59:43;;;;;;;14.35;5.10;;;14.70;99.90;;;;;;4985328;28;20207;-76
2022/05/08 08:02:12;;;;;;;11.88;4.57;;;15.10;99.90;;;;;;4990406;28;20207;-75
2022/05/08 08:04:40;;;;;;;10.05;4.32;;;15.10;99.30;;;;;;4989704;28;20219;-76
2022/05/08 08:07:08;;;;;;;9.43;4.72;;;15.50;99.60;;;;;;4994785;28;20689;-76
2022/05/08 08:09:35;;;;;;;34.63;9.18;;;15.60;99.50;;;;;;5008781;28;20701;-76
2022/05/08 08:12:03;;;;;;;31.95;8.75;;;15.80;99.90;;;;;;4986567;28;20193;-76
2022/05/08 08:14:30;;;;;;;21.35;7.75;;;15.70;99.90;;;;;;4986259;28;20211;-76
2022/05/08 08:16:57;;;;;;;16.50;5.97;;;15.70;99.40;;;;;;4982086;28;20580;-76
2022/05/08 08:19:26;;;;;;;11.77;4.63;;;15.70;99.50;;;;;;4985726;28;20204;-76
2022/05/08 08:21:59;;;;;;;15.77;5.28;;;15.60;97.20;;;;;;4978176;28;20204;-76
2022/05/08 08:24:36;;;;;;;19.17;5.70;;;15.10;98.70;;;;;;4989279;28;20200;-76
2022/05/08 08:27:19;;;;;;;13.38;5.07;;;15.30;98.50;;;;;;4988213;28;20560;-76
2022/05/08 08:29:46;;;;;;;12.30;4.88;;;15.50;99.40;;;;;;4989357;28;20200;-76
2022/05/08 08:32:14;;;;;;;10.50;4.55;;;15.60;98.30;;;;;;4993390;28;20207;-76
2022/05/08 08:34:55;;;;;;;11.80;4.18;;;15.60;97.50;;;;;;4995608;28;20208;-78
2022/05/08 08:37:22;;;;;;;13.43;4.80;;;15.60;98.00;;;;;;5008302;28;20228;-76
2022/05/08 08:39:50;;;;;;;9.68;3.88;;;15.80;96.70;;;;;;4994722;28;20200;-76
2022/05/08 08:42:39;;;;;;;10.85;4.18;;;15.70;98.00;;;;;;5002383;28;20212;-76
2022/05/08 08:47:56;;;;;;;13.25;4.68;;;15.90;96.60;;;;;;4988790;28;20230;-76
2022/05/08 08:50:29;;;;;;;8.65;4.20;;;14.90;96.80;;;;;;5000392;28;20721;-76
2022/05/08 08:52:59;;;;;;;12.38;4.70;;;14.90;97.10;;;;;;4986630;28;20204;-75
2022/05/08 08:55:27;;;;;;;10.73;4.72;;;15.00;99.90;;;;;;4988641;28;20192;-75
2022/05/08 08:57:55;;;;;;;8.35;4.13;;;15.20;97.30;;;;;;4985181;28;20574;-75
2022/05/08 09:00:22;;;;;;;12.30;4.88;;;14.90;98.00;;;;;;4989744;28;20212;-75
2022/05/08 09:02:54;;;;;;;11.35;4.35;;;15.40;98.20;;;;;;4999091;28;20211;-75
2022/05/08 09:05:25;;;;;;;12.23;4.57;;;15.70;97.90;;;;;;4997162;28;20201;-79
2022/05/08 09:07:54;;;;;;;9.60;3.90;;;16.00;98.20;;;;;;4999036;28;20231;-76
2022/05/08 09:10:25;;;;;;;9.68;4.30;;;15.90;96.40;;;;;;4993307;28;20196;-76
2022/05/08 09:13:04;;;;;;;10.13;3.90;;;15.50;95.90;;;;;;4997642;28;20208;-76
2022/05/08 09:15:34;;;;;;;10.40;4.35;;;15.10;96.50;;;;;;4997661;28;20211;-76
2022/05/08 09:18:03;;;;;;;10.27;4.32;;;14.90;96.70;;;;;;4995443;28;20235;-75
2022/05/08 09:20:33;;;;;;;9.93;4.10;;;14.90;97.10;;;;;;5015557;28;20204;-76
2022/05/08 09:23:11;;;;;;;9.95;4.43;;;14.90;96.70;;;;;;4987917;28;20201;-77
2022/05/08 09:25:55;;;;;;;13.07;4.18;;;14.80;98.00;;;;;;4996713;28;20200;-78
2022/05/08 09:28:26;;;;;;;10.02;4.03;;;14.50;97.90;;;;;;4998374;28;20220;-80
2022/05/08 09:30:55;;;;;;;10.00;4.07;;;14.70;98.60;;;;;;5008494;28;20215;-79
2022/05/08 09:33:24;;;;;;;21.38;7.63;;;14.70;97.40;;;;;;5001100;28;20572;-79
2022/05/08 09:35:52;;;;;;;9.52;3.80;;;14.70;98.60;;;;;;4999395;28;20663;-77
2022/05/08 09:38:21;;;;;;;10.50;3.90;;;14.70;98.20;;;;;;4995435;28;20200;-76
2022/05/08 09:41:04;;;;;;;12.00;3.75;;;14.70;97.00;;;;;;4995714;28;20204;-76
2022/05/08 09:43:32;;;;;;;11.85;3.90;;;14.50;96.70;;;;;;4993506;28;20200;-76
2022/05/08 09:46:00;;;;;;;7.18;3.35;;;14.40;97.50;;;;;;5005323;28;20207;-77
2022/05/08 09:48:29;;;;;;;11.40;3.70;;;14.60;98.10;;;;;;5006652;28;20239;-76
2022/05/08 09:50:58;;;;;;;7.53;3.65;;;14.50;97.00;;;;;;5013727;28;20266;-77
2022/05/08 09:53:27;;;;;;;7.53;3.53;;;14.60;96.60;;;;;;5006905;28;20196;-77
2022/05/08 09:55:56;;;;;;;10.15;3.83;;;14.70;96.50;;;;;;5012290;28;20215;-77
2022/05/08 09:58:23;;;;;;;10.73;3.80;;;14.90;96.30;;;;;;5022006;28;20565;-77
2022/05/08 10:00:52;;;;;;;9.40;3.80;;;14.70;96.40;;;;;;4997201;28;20208;-77
2022/05/08 10:03:19;;;;;;;11.05;4.30;;;14.70;97.60;;;;;;5029444;28;20211;-77
2022/05/08 10:05:49;;;;;;;9.52;3.78;;;15.00;97.80;;;;;;5002407;28;20198;-77
2022/05/08 10:08:17;;;;;;;8.65;4.13;;;15.20;96.50;;;;;;5004181;28;20216;-77
2022/05/08 10:16:49;;;;;;;8.13;3.38;;;15.00;95.80;;;;;;4983039;28;20239;-77
2022/05/08 10:19:53;;;;;;;6.15;3.70;;;14.80;96.60;;;;;;4996038;28;20200;-77
2022/05/08 10:22:21;;;;;;;8.20;3.55;;;15.20;96.60;;;;;;4996089;28;20200;-77
2022/05/08 10:24:55;;;;;;;9.23;3.90;;;15.20;96.50;;;;;;5001403;28;20211;-76
2022/05/08 10:27:26;;;;;;;11.93;4.55;;;15.70;96.30;;;;;;5006640;28;20736;-76
2022/05/08 10:30:32;;;;;;;10.57;3.53;;;15.50;95.00;;;;;;5002215;28;20581;-77
2022/05/08 10:33:01;;;;;;;9.75;4.03;;;15.30;95.30;;;;;;4994085;28;20205;-76
2022/05/08 10:35:31;;;;;;;10.52;5.15;;;15.30;95.20;;;;;;4995976;28;20188;-76
2022/05/08 10:38:21;;;;;;;10.20;3.67;;;15.60;96.70;;;;;;4990794;28;20216;-76
2022/05/08 10:40:50;;;;;;;8.35;3.63;;;15.70;95.20;;;;;;5002621;28;20193;-76
2022/05/08 10:43:28;;;;;;;8.32;4.13;;;15.90;95.30;;;;;;4994070;28;20195;-76
2022/05/08 10:45:56;;;;;;;9.77;4.10;;;15.90;94.50;;;;;;5011434;28;20197;-76
2022/05/08 10:48:30;;;;;;;8.82;4.30;;;16.00;94.50;;;;;;5017602;28;20213;-76
2022/05/08 10:51:00;;;;;;;9.18;3.72;;;15.70;94.60;;;;;;5013188;28;20211;-76
2022/05/08 10:53:30;;;;;;;7.50;3.83;;;15.80;94.60;;;;;;5015109;28;20563;-76
2022/05/08 10:56:05;;;;;;;11.10;4.82;;;16.10;94.10;;;;;;5022548;28;20195;-76
2022/05/08 10:58:41;;;;;;;9.85;4.78;;;15.90;93.90;;;;;;5025072;28;20554;-76
2022/05/08 11:01:10;;;;;;;9.18;4.55;;;16.20;94.00;;;;;;5022573;28;20199;-76
2022/05/08 11:03:38;;;;;;;8.95;3.63;;;16.40;93.80;;;;;;5005034;28;20211;-76
2022/05/08 11:06:07;;;;;;;7.00;3.63;;;16.60;92.90;;;;;;5008895;28;20215;-76
2022/05/08 11:08:36;;;;;;;9.02;3.88;;;16.90;91.10;;;;;;5000880;28;20215;-76
2022/05/08 11:11:11;;;;;;;10.35;4.78;;;16.40;91.60;;;;;;5001550;28;20223;-76
2022/05/08 11:13:51;;;;;;;5.60;3.38;;;16.30;91.50;;;;;;4992588;28;20231;-77
2022/05/08 11:16:37;;;;;;;7.53;3.40;;;16.30;91.20;;;;;;5008990;28;20582;-77
2022/05/08 11:19:05;;;;;;;7.22;4.10;;;16.60;90.90;;;;;;5006166;28;20191;-76
2022/05/08 11:21:34;;;;;;;6.18;3.50;;;16.50;91.00;;;;;;5006027;28;20214;-76
2022/05/08 11:24:03;;;;;;;7.53;3.15;;;16.30;90.30;;;;;;5007196;28;20681;-76
2022/05/08 11:26:32;;;;;;;7.32;3.67;;;16.40;90.70;;;;;;5007609;28;20216;-76
2022/05/08 11:29:01;;;;;;;10.10;4.03;;;16.20;91.40;;;;;;5029425;28;20231;-77
2022/05/08 11:31:29;;;;;;;6.47;3.53;;;16.50;90.80;;;;;;4995299;28;20211;-77
2022/05/08 11:36:44;;;;;;;9.82;3.97;;;16.80;90.50;;;;;;5005797;28;20224;-77
2022/05/08 11:39:14;;;;;;;8.68;3.03;;;17.10;90.50;;;;;;4996257;28;20196;-77
2022/05/08 11:41:44;;;;;;;9.02;3.50;;;17.40;90.30;;;;;;5003589;28;20214;-77
2022/05/08 11:44:20;;;;;;;7.70;3.50;;;17.50;88.70;;;;;;4999727;28;20200;-76
2022/05/08 11:46:48;;;;;;;6.78;3.28;;;17.60;88.00;;;;;;5012597;28;20219;-77
2022/05/08 11:49:17;;;;;;;8.07;3.80;;;17.50;86.60;;;;;;5001612;28;20228;-77
2022/05/08 11:51:56;;;;;;;7.72;3.70;;;17.90;86.60;;;;;;4992514;28;20535;-77
2022/05/08 11:54:27;;;;;;;8.23;3.58;;;17.60;86.00;;;;;;5009302;28;20208;-77
2022/05/08 11:57:16;;;;;;;6.85;3.00;;;17.60;88.50;;;;;;4993525;28;20580;-77
2022/05/08 11:59:46;;;;;;;8.57;3.60;;;17.80;87.00;;;;;;5004823;28;20204;-77
2022/05/08 12:02:14;;;;;;;6.82;3.40;;;17.70;87.30;;;;;;5011902;28;20704;-77
2022/05/08 12:04:43;;;;;;;8.93;3.33;;;18.00;85.80;;;;;;5012124;28;20203;-77
2022/05/08 12:07:12;;;;;;;6.85;4.03;;;18.10;89.60;;;;;;5028017;28;20681;-77
2022/05/08 12:09:41;;;;;;;8.27;3.90;;;18.40;88.60;;;;;;5007295;28;20226;-77
2022/05/08 12:12:27;;;;;;;9.45;4.30;;;17.90;88.50;;;;;;4994151;28;20204;-77
2022/05/08 12:14:59;;;;;;;6.57;3.67;;;18.50;86.70;;;;;;4992715;28;20583;-77
2022/05/08 12:17:27;;;;;;;9.27;3.55;;;18.60;87.50;;;;;;5007057;28;20231;-77
2022/05/08 12:19:56;;;;;;;8.65;3.60;;;18.80;87.50;;;;;;5009226;28;20207;-77
2022/05/08 12:22:25;;;;;;;11.70;4.30;;;18.40;90.70;;;;;;5009035;28;20203;-77
2022/05/08 12:24:53;;;;;;;8.82;3.70;;;18.80;90.10;;;;;;4993469;28;20205;-77
2022/05/08 12:27:23;;;;;;;7.03;3.67;;;18.40;89.60;;;;;;5011640;28;20690;-77
2022/05/08 12:29:50;;;;;;;9.20;4.28;;;18.80;89.80;;;;;;4992728;28;20224;-77
2022/05/08 12:32:20;;;;;;;7.55;4.03;;;19.20;88.30;;;;;;4992009;28;20588;-77
2022/05/08 12:34:48;;;;;;;7.25;3.70;;;19.20;85.20;;;;;;5007867;28;20211;-77
2022/05/08 12:37:17;;;;;;;8.27;4.28;;;19.30;83.10;;;;;;4990910;28;20227;-77
2022/05/08 12:39:45;;;;;;;5.88;3.28;;;19.30;82.80;;;;;;5015793;28;20212;-77
2022/05/08 12:42:12;;;;;;;7.95;4.00;;;19.60;82.10;;;;;;4991951;28;20200;-77
2022/05/08 12:44:40;;;;;;;7.57;3.65;;;19.60;80.80;;;;;;4991816;28;20200;-77
2022/05/08 12:47:10;;;;;;;7.90;3.40;;;19.80;80.80;;;;;;4994590;28;20216;-77
2022/05/08 12:49:40;;;;;;;7.07;3.42;;;19.90;81.20;;;;;;5011363;28;20220;-77
2022/05/08 12:52:09;;;;;;;8.20;3.10;;;19.90;78.60;;;;;;4994785;28;20223;-77
2022/05/08 12:54:37;;;;;;;8.32;3.60;;;20.00;79.50;;;;;;5014485;28;20191;-77
2022/05/08 12:57:07;;;;;;;8.05;3.80;;;19.90;78.40;;;;;;5014141;28;20219;-77
2022/05/08 12:59:43;;;;;;;6.25;3.50;;;19.70;82.30;;;;;;5013963;28;20238;-77
2022/05/08 13:02:11;;;;;;;4.85;3.03;;;20.00;81.50;;;;;;5014766;28;20675;-77
2022/05/08 13:04:41;;;;;;;7.25;3.10;;;20.10;75.90;;;;;;5001797;28;20217;-77
2022/05/08 13:07:09;;;;;;;7.20;3.53;;;20.10;74.20;;;;;;5000245;28;20236;-77
2022/05/08 13:09:37;;;;;;;5.85;2.75;;;20.10;72.90;;;;;;5005818;28;20220;-77
2022/05/08 13:12:05;;;;;;;5.43;2.85;;;19.90;74.40;;;;;;5014389;28;20196;-77
2022/05/08 13:14:33;;;;;;;6.00;3.00;;;20.20;73.30;;;;;;5014141;28;20203;-77
2022/05/08 13:17:02;;;;;;;6.32;2.70;;;20.30;72.10;;;;;;5017621;28;20216;-77